sensor_id;sensor_type;location;lat;lon;timestamp;pressure;altitude;pressure_sealevel;temperature;humidity
71643;BME280;59438;45.014;39.006;2023-04-07T00:01:51;101121.44;;;9.89;74.68
71643;BME280;59438;45.014;39.006;2023-04-07T00:04:17;101148.13;;;10.05;73.92
71643;BME280;59438;45.014;39.006;2023-04-07T00:06:44;101135.22;;;9.97;74.32
71643;BME280;59438;45.014;39.006;2023-04-07T00:09:10;101147.31;;;10.03;74.26
71643;BME280;59438;45.014;39.006;2023-04-07T00:11:38;101147.22;;;10.06;74.19
71643;BME280;59438;45.014;39.006;2023-04-07T00:14:04;101126.50;;;9.95;74.40
71643;BME280;59438;45.014;39.006;2023-04-07T00:16:30;101142.06;;;10.03;73.98
71643;BME280;59438;45.014;39.006;2023-04-07T00:18:57;101148.19;;;10.02;74.80
71643;BME280;59438;45.014;39.006;2023-04-07T00:21:23;101129.28;;;9.91;75.21
71643;BME280;59438;45.014;39.006;2023-04-07T00:23:50;101143.03;;;9.99;74.39
71643;BME280;59438;45.014;39.006;2023-04-07T00:26:16;101143.03;;;9.99;74.43
71643;BME280;59438;45.014;39.006;2023-04-07T00:28:44;101141.31;;;9.98;75.07
71643;BME280;59438;45.014;39.006;2023-04-07T00:31:10;101142.16;;;9.98;74.96
71643;BME280;59438;45.014;39.006;2023-04-07T00:33:37;101140.53;;;9.94;74.71
71643;BME280;59438;45.014;39.006;2023-04-07T00:36:03;101149.19;;;9.98;74.77
71643;BME280;59438;45.014;39.006;2023-04-07T00:38:30;101117.25;;;9.82;74.90
71643;BME280;59438;45.014;39.006;2023-04-07T00:40:57;101138.72;;;9.96;74.87
71643;BME280;59438;45.014;39.006;2023-04-07T00:43:23;101143.13;;;9.96;74.80
71643;BME280;59438;45.014;39.006;2023-04-07T00:45:51;101144.03;;;9.95;75.32
71643;BME280;59438;45.014;39.006;2023-04-07T00:48:18;101145.78;;;9.94;75.17
71643;BME280;59438;45.014;39.006;2023-04-07T00:50:45;101146.66;;;9.95;74.95
71643;BME280;59438;45.014;39.006;2023-04-07T00:53:11;101139.78;;;9.91;75.05
71643;BME280;59438;45.014;39.006;2023-04-07T00:55:38;101148.41;;;9.94;75.58
71643;BME280;59438;45.014;39.006;2023-04-07T00:58:04;101147.53;;;9.94;75.50
71643;BME280;59438;45.014;39.006;2023-04-07T01:00:32;101145.03;;;9.91;75.82
71643;BME280;59438;45.014;39.006;2023-04-07T01:03:06;101136.41;;;9.85;76.01
71643;BME280;59438;45.014;39.006;2023-04-07T01:05:41;101142.44;;;9.89;76.70
71643;BME280;59438;45.014;39.006;2023-04-07T01:08:14;101150.34;;;9.87;76.30
71643;BME280;59438;45.014;39.006;2023-04-07T01:10:47;101154.72;;;9.87;76.30
71643;BME280;59438;45.014;39.006;2023-04-07T01:13:21;101148.69;;;9.83;76.21
71643;BME280;59438;45.014;39.006;2023-04-07T01:15:51;101141.84;;;9.78;76.41
71643;BME280;59438;45.014;39.006;2023-04-07T01:18:21;101140.91;;;9.80;76.72
71643;BME280;59438;45.014;39.006;2023-04-07T01:20:50;101129.03;;;9.67;76.71
71643;BME280;59438;45.014;39.006;2023-04-07T01:23:22;101139.44;;;9.70;76.75
71643;BME280;59438;45.014;39.006;2023-04-07T01:26:03;101148.94;;;9.74;77.48
71643;BME280;59438;45.014;39.006;2023-04-07T01:29:03;101144.59;;;9.73;77.66
71643;BME280;59438;45.014;39.006;2023-04-07T01:31:36;101149.03;;;9.71;77.29
71643;BME280;59438;45.014;39.006;2023-04-07T01:34:05;101141.19;;;9.69;76.33
71643;BME280;59438;45.014;39.006;2023-04-07T01:36:32;101115.50;;;9.50;76.42
71643;BME280;59438;45.014;39.006;2023-04-07T01:38:59;101143.81;;;9.69;76.21
71643;BME280;59438;45.014;39.006;2023-04-07T01:41:26;101146.44;;;9.69;77.10
71643;BME280;59438;45.014;39.006;2023-04-07T01:43:54;101146.50;;;9.68;76.64
71643;BME280;59438;45.014;39.006;2023-04-07T01:46:21;101148.22;;;9.67;77.00
71643;BME280;59438;45.014;39.006;2023-04-07T01:48:50;101149.19;;;9.65;77.83
71643;BME280;59438;45.014;39.006;2023-04-07T01:51:19;101149.22;;;9.63;76.86
71643;BME280;59438;45.014;39.006;2023-04-07T01:53:45;101135.38;;;9.58;77.36
71643;BME280;59438;45.014;39.006;2023-04-07T01:56:12;101141.44;;;9.60;77.19
71643;BME280;59438;45.014;39.006;2023-04-07T01:58:39;101135.41;;;9.57;77.60
71643;BME280;59438;45.014;39.006;2023-04-07T02:01:05;101145.84;;;9.60;77.50
71643;BME280;59438;45.014;39.006;2023-04-07T02:03:37;101111.31;;;9.41;77.54
71643;BME280;59438;45.014;39.006;2023-04-07T02:06:08;101142.31;;;9.59;78.18
71643;BME280;59438;45.014;39.006;2023-04-07T02:08:41;101154.47;;;9.63;78.39
71643;BME280;59438;45.014;39.006;2023-04-07T02:11:09;101145.75;;;9.63;78.29
71643;BME280;59438;45.014;39.006;2023-04-07T02:13:38;101152.78;;;9.61;78.39
71643;BME280;59438;45.014;39.006;2023-04-07T02:16:06;101150.13;;;9.62;77.39
71643;BME280;59438;45.014;39.006;2023-04-07T02:18:33;101151.91;;;9.62;78.07
71643;BME280;59438;45.014;39.006;2023-04-07T02:21:01;101147.50;;;9.62;77.28
71643;BME280;59438;45.014;39.006;2023-04-07T02:23:34;101147.56;;;9.59;78.55
71643;BME280;59438;45.014;39.006;2023-04-07T02:26:00;101121.56;;;9.52;79.20
71643;BME280;59438;45.014;39.006;2023-04-07T02:28:26;101147.53;;;9.61;77.71
71643;BME280;59438;45.014;39.006;2023-04-07T02:30:52;101144.94;;;9.59;77.39
71643;BME280;59438;45.014;39.006;2023-04-07T02:33:19;101128.69;;;9.45;77.88
71643;BME280;59438;45.014;39.006;2023-04-07T02:35:45;101145.06;;;9.55;78.20
71643;BME280;59438;45.014;39.006;2023-04-07T02:38:11;101152.00;;;9.57;77.85
71643;BME280;59438;45.014;39.006;2023-04-07T02:40:39;101136.34;;;9.54;78.31
71643;BME280;59438;45.014;39.006;2023-04-07T02:43:05;101146.72;;;9.59;77.43
71643;BME280;59438;45.014;39.006;2023-04-07T02:45:32;101141.59;;;9.54;77.92
71643;BME280;59438;45.014;39.006;2023-04-07T02:47:58;101146.84;;;9.54;77.35
71643;BME280;59438;45.014;39.006;2023-04-07T02:50:24;101155.53;;;9.56;77.92
71643;BME280;59438;45.014;39.006;2023-04-07T02:52:51;101156.38;;;9.57;77.57
71643;BME280;59438;45.014;39.006;2023-04-07T02:55:17;101142.59;;;9.48;77.29
71643;BME280;59438;45.014;39.006;2023-04-07T02:57:45;101141.75;;;9.48;77.75
71643;BME280;59438;45.014;39.006;2023-04-07T03:00:13;101151.38;;;9.47;77.34
71643;BME280;59438;45.014;39.006;2023-04-07T03:02:39;101157.56;;;9.45;77.86
71643;BME280;59438;45.014;39.006;2023-04-07T03:05:06;101148.97;;;9.38;78.34
71643;BME280;59438;45.014;39.006;2023-04-07T03:07:32;101157.69;;;9.39;78.36
71643;BME280;59438;45.014;39.006;2023-04-07T03:09:59;101153.41;;;9.36;77.68
71643;BME280;59438;45.014;39.006;2023-04-07T03:12:25;101167.47;;;9.34;77.73
71643;BME280;59438;45.014;39.006;2023-04-07T03:14:53;101152.72;;;9.28;78.11
71643;BME280;59438;45.014;39.006;2023-04-07T03:17:19;101158.06;;;9.25;77.73
71643;BME280;59438;45.014;39.006;2023-04-07T03:19:46;101156.22;;;9.28;77.86
71643;BME280;59438;45.014;39.006;2023-04-07T03:22:12;101164.97;;;9.29;77.96
71643;BME280;59438;45.014;39.006;2023-04-07T03:24:38;101138.22;;;9.15;78.04
71643;BME280;59438;45.014;39.006;2023-04-07T03:27:05;101160.59;;;9.28;78.48
71643;BME280;59438;45.014;39.006;2023-04-07T03:29:31;101175.34;;;9.32;77.67
71643;BME280;59438;45.014;39.006;2023-04-07T03:31:59;101162.28;;;9.31;78.23
71643;BME280;59438;45.014;39.006;2023-04-07T03:34:25;101164.88;;;9.32;78.08
71643;BME280;59438;45.014;39.006;2023-04-07T03:36:52;101159.75;;;9.27;77.74
71643;BME280;59438;45.014;39.006;2023-04-07T03:39:18;101164.97;;;9.27;78.60
71643;BME280;59438;45.014;39.006;2023-04-07T03:41:44;101166.75;;;9.27;78.31
71643;BME280;59438;45.014;39.006;2023-04-07T03:44:11;101164.16;;;9.25;78.63
71643;BME280;59438;45.014;39.006;2023-04-07T03:46:37;101174.53;;;9.30;77.66
71643;BME280;59438;45.014;39.006;2023-04-07T03:49:05;101167.63;;;9.26;77.92
71643;BME280;59438;45.014;39.006;2023-04-07T03:51:31;101171.16;;;9.25;77.83
71643;BME280;59438;45.014;39.006;2023-04-07T03:53:57;101172.09;;;9.22;78.03
71643;BME280;59438;45.014;39.006;2023-04-07T03:56:24;101178.22;;;9.23;77.82
71643;BME280;59438;45.014;39.006;2023-04-07T03:58:50;101172.09;;;9.22;77.93
71643;BME280;59438;45.014;39.006;2023-04-07T04:01:17;101183.34;;;9.27;78.22
71643;BME280;59438;45.014;39.006;2023-04-07T04:03:43;101185.00;;;9.30;78.40
71643;BME280;59438;45.014;39.006;2023-04-07T04:06:11;101181.41;;;9.34;78.56
71643;BME280;59438;45.014;39.006;2023-04-07T04:08:37;101184.88;;;9.36;77.61
71643;BME280;59438;45.014;39.006;2023-04-07T04:11:04;101189.22;;;9.37;78.05
71643;BME280;59438;45.014;39.006;2023-04-07T04:13:30;101184.00;;;9.36;78.25
71643;BME280;59438;45.014;39.006;2023-04-07T04:15:56;101196.94;;;9.43;77.70
71643;BME280;59438;45.014;39.006;2023-04-07T04:18:23;101200.44;;;9.42;78.42
71643;BME280;59438;45.014;39.006;2023-04-07T04:20:49;101201.28;;;9.44;77.58
71643;BME280;59438;45.014;39.006;2023-04-07T04:23:17;101210.06;;;9.43;77.66
71643;BME280;59438;45.014;39.006;2023-04-07T04:25:43;101209.16;;;9.43;77.39
71643;BME280;59438;45.014;39.006;2023-04-07T04:28:10;101204.88;;;9.40;77.89
71643;BME280;59438;45.014;39.006;2023-04-07T04:30:36;101198.88;;;9.35;77.41
71643;BME280;59438;45.014;39.006;2023-04-07T04:33:02;101213.56;;;9.42;77.01
71643;BME280;59438;45.014;39.006;2023-04-07T04:35:29;101204.22;;;9.31;77.72
71643;BME280;59438;45.014;39.006;2023-04-07T04:37:55;101213.56;;;9.42;77.58
71643;BME280;59438;45.014;39.006;2023-04-07T04:40:23;101218.78;;;9.44;77.52
71643;BME280;59438;45.014;39.006;2023-04-07T04:42:49;101217.91;;;9.43;77.49
71643;BME280;59438;45.014;39.006;2023-04-07T04:45:16;101218.78;;;9.44;78.15
71643;BME280;59438;45.014;39.006;2023-04-07T04:47:42;101222.25;;;9.44;77.37
71643;BME280;59438;45.014;39.006;2023-04-07T04:50:09;101221.41;;;9.44;77.94
71643;BME280;59438;45.014;39.006;2023-04-07T04:52:35;101216.97;;;9.46;78.08
71643;BME280;59438;45.014;39.006;2023-04-07T04:55:02;101223.94;;;9.47;77.45
71643;BME280;59438;45.014;39.006;2023-04-07T04:57:29;101216.03;;;9.48;78.27
71643;BME280;59438;45.014;39.006;2023-04-07T04:59:56;101216.84;;;9.51;78.12
71643;BME280;59438;45.014;39.006;2023-04-07T05:02:22;101218.59;;;9.52;77.63
71643;BME280;59438;45.014;39.006;2023-04-07T05:04:48;101214.22;;;9.51;78.03
71643;BME280;59438;45.014;39.006;2023-04-07T05:07:15;101211.56;;;9.54;77.62
71643;BME280;59438;45.014;39.006;2023-04-07T05:09:41;101211.59;;;9.52;78.17
71643;BME280;59438;45.014;39.006;2023-04-07T05:12:08;101211.50;;;9.55;77.98
71643;BME280;59438;45.014;39.006;2023-04-07T05:14:35;101195.84;;;9.52;78.11
71643;BME280;59438;45.014;39.006;2023-04-07T05:17:02;101203.63;;;9.55;77.45
71643;BME280;59438;45.014;39.006;2023-04-07T05:19:28;101197.41;;;9.59;78.66
71643;BME280;59438;45.014;39.006;2023-04-07T05:21:55;101197.34;;;9.62;77.59
71643;BME280;59438;45.014;39.006;2023-04-07T05:24:21;101188.66;;;9.60;77.93
71643;BME280;59438;45.014;39.006;2023-04-07T05:26:47;101205.88;;;9.71;77.83
71643;BME280;59438;45.014;39.006;2023-04-07T05:29:14;101202.28;;;9.75;77.61
71643;BME280;59438;45.014;39.006;2023-04-07T05:31:41;101208.25;;;9.80;78.85
71643;BME280;59438;45.014;39.006;2023-04-07T05:34:08;101205.56;;;9.83;78.00
71643;BME280;59438;45.014;39.006;2023-04-07T05:36:34;101205.31;;;9.92;78.50
71643;BME280;59438;45.014;39.006;2023-04-07T05:39:00;101213.00;;;10.00;78.18
71643;BME280;59438;45.014;39.006;2023-04-07T05:41:27;101210.16;;;10.07;77.45
71643;BME280;59438;45.014;39.006;2023-04-07T05:43:53;101203.94;;;10.12;78.07
71643;BME280;59438;45.014;39.006;2023-04-07T05:46:19;101213.44;;;10.16;77.57
71643;BME280;59438;45.014;39.006;2023-04-07T05:48:48;101214.13;;;10.22;77.95
71643;BME280;59438;45.014;39.006;2023-04-07T05:51:14;101211.44;;;10.25;77.06
71643;BME280;59438;45.014;39.006;2023-04-07T05:53:40;101225.16;;;10.37;77.79
71643;BME280;59438;45.014;39.006;2023-04-07T05:56:07;101230.19;;;10.44;77.38
71643;BME280;59438;45.014;39.006;2023-04-07T05:58:33;101225.75;;;10.46;77.36
71643;BME280;59438;45.014;39.006;2023-04-07T06:00:59;101225.66;;;10.49;77.90
71643;BME280;59438;45.014;39.006;2023-04-07T06:03:26;101220.25;;;10.54;76.73
71643;BME280;59438;45.014;39.006;2023-04-07T06:05:54;101234.22;;;10.56;77.21
71643;BME280;59438;45.014;39.006;2023-04-07T06:08:20;101230.72;;;10.56;76.71
71643;BME280;59438;45.014;39.006;2023-04-07T06:10:47;101237.72;;;10.57;77.44
71643;BME280;59438;45.014;39.006;2023-04-07T06:13:13;101235.03;;;10.58;76.56
71643;BME280;59438;45.014;39.006;2023-04-07T06:15:39;101235.91;;;10.59;76.73
71643;BME280;59438;45.014;39.006;2023-04-07T06:18:06;101231.31;;;10.67;77.64
71643;BME280;59438;45.014;39.006;2023-04-07T06:20:32;101225.88;;;10.73;76.91
71643;BME280;59438;45.014;39.006;2023-04-07T06:23:00;101224.88;;;10.77;76.59
71643;BME280;59438;45.014;39.006;2023-04-07T06:25:27;101213.47;;;10.77;76.83
71643;BME280;59438;45.014;39.006;2023-04-07T06:27:53;101223.63;;;10.89;76.90
71643;BME280;59438;45.014;39.006;2023-04-07T06:30:20;101232.13;;;10.97;76.44
71643;BME280;59438;45.014;39.006;2023-04-07T06:32:46;101232.91;;;11.01;76.63
71643;BME280;59438;45.014;39.006;2023-04-07T06:35:13;101237.22;;;11.03;76.56
71643;BME280;59438;45.014;39.006;2023-04-07T06:37:39;101242.53;;;11.02;76.07
71643;BME280;59438;45.014;39.006;2023-04-07T06:40:08;101253.91;;;11.02;75.66
71643;BME280;59438;45.014;39.006;2023-04-07T06:42:35;101234.03;;;10.94;75.58
71643;BME280;59438;45.014;39.006;2023-04-07T06:45:01;101246.91;;;11.01;76.16
71643;BME280;59438;45.014;39.006;2023-04-07T06:47:27;101259.13;;;11.04;76.05
71643;BME280;59438;45.014;39.006;2023-04-07T06:49:54;101249.53;;;11.01;76.36
71643;BME280;59438;45.014;39.006;2023-04-07T06:52:20;101254.75;;;11.03;75.99
71643;BME280;59438;45.014;39.006;2023-04-07T06:54:46;101260.06;;;11.01;75.50
71643;BME280;59438;45.014;39.006;2023-04-07T06:57:14;101246.09;;;10.99;76.27
71643;BME280;59438;45.014;39.006;2023-04-07T06:59:40;101236.72;;;10.91;75.33
71643;BME280;59438;45.014;39.006;2023-04-07T07:02:07;101253.13;;;10.99;76.23
71643;BME280;59438;45.014;39.006;2023-04-07T07:04:33;101242.56;;;11.00;76.09
71643;BME280;59438;45.014;39.006;2023-04-07T07:06:59;101247.72;;;11.03;76.05
71643;BME280;59438;45.014;39.006;2023-04-07T07:09:26;101244.91;;;11.09;75.68
71643;BME280;59438;45.014;39.006;2023-04-07T07:11:52;101238.66;;;11.14;75.96
71643;BME280;59438;45.014;39.006;2023-04-07T07:14:20;101230.06;;;11.08;75.57
71643;BME280;59438;45.014;39.006;2023-04-07T07:16:46;101246.13;;;11.27;75.92
71643;BME280;59438;45.014;39.006;2023-04-07T07:19:13;101243.34;;;11.32;75.17
71643;BME280;59438;45.014;39.006;2023-04-07T07:21:39;101237.16;;;11.35;75.35
71643;BME280;59438;45.014;39.006;2023-04-07T07:24:06;101235.25;;;11.38;75.42
71643;BME280;59438;45.014;39.006;2023-04-07T07:26:32;101241.28;;;11.42;74.82
71643;BME280;59438;45.014;39.006;2023-04-07T07:28:59;101235.16;;;11.41;75.13
71643;BME280;59438;45.014;39.006;2023-04-07T07:31:26;101230.88;;;11.39;74.78
71643;BME280;59438;45.014;39.006;2023-04-07T07:33:53;101235.25;;;11.38;75.33
71643;BME280;59438;45.014;39.006;2023-04-07T07:36:19;101234.31;;;11.41;75.42
71643;BME280;59438;45.014;39.006;2023-04-07T07:38:45;101237.69;;;11.44;75.11
71643;BME280;59438;45.014;39.006;2023-04-07T07:41:12;101223.72;;;11.42;74.74
71643;BME280;59438;45.014;39.006;2023-04-07T07:43:38;101229.59;;;11.50;75.18
71643;BME280;59438;45.014;39.006;2023-04-07T07:46:05;101234.78;;;11.54;74.23
71643;BME280;59438;45.014;39.006;2023-04-07T07:48:32;101222.47;;;11.54;74.05
71643;BME280;59438;45.014;39.006;2023-04-07T07:50:59;101235.44;;;11.60;74.09
71643;BME280;59438;45.014;39.006;2023-04-07T07:53:25;101242.34;;;11.63;73.95
71643;BME280;59438;45.014;39.006;2023-04-07T07:55:51;101232.75;;;11.62;74.33
71643;BME280;59438;45.014;39.006;2023-04-07T07:58:18;101230.97;;;11.62;74.30
71643;BME280;59438;45.014;39.006;2023-04-07T08:00:44;101234.47;;;11.63;74.46
71643;BME280;59438;45.014;39.006;2023-04-07T08:03:10;101242.31;;;11.64;74.27
71643;BME280;59438;45.014;39.006;2023-04-07T08:05:38;101231.91;;;11.61;74.09
71643;BME280;59438;45.014;39.006;2023-04-07T08:08:05;101237.91;;;11.65;74.81
71643;BME280;59438;45.014;39.006;2023-04-07T08:10:31;101236.19;;;11.64;74.79
71643;BME280;59438;45.014;39.006;2023-04-07T08:12:57;101206.09;;;11.46;74.09
71643;BME280;59438;45.014;39.006;2023-04-07T08:15:24;101237.16;;;11.61;74.43
71643;BME280;59438;45.014;39.006;2023-04-07T08:17:50;101235.34;;;11.63;74.40
71643;BME280;59438;45.014;39.006;2023-04-07T08:20:17;101224.06;;;11.60;74.56
71643;BME280;59438;45.014;39.006;2023-04-07T08:22:45;101232.72;;;11.63;74.47
71643;BME280;59438;45.014;39.006;2023-04-07T08:25:11;101233.44;;;11.67;74.53
71643;BME280;59438;45.014;39.006;2023-04-07T08:27:38;101223.88;;;11.64;73.96
71643;BME280;59438;45.014;39.006;2023-04-07T08:30:05;101223.84;;;11.66;73.89
71643;BME280;59438;45.014;39.006;2023-04-07T08:32:36;101221.31;;;11.63;74.15
71643;BME280;59438;45.014;39.006;2023-04-07T08:35:02;101220.25;;;11.68;74.53
71643;BME280;59438;45.014;39.006;2023-04-07T08:37:29;101224.69;;;11.66;73.99
71643;BME280;59438;45.014;39.006;2023-04-07T08:39:57;101223.72;;;11.69;74.33
71643;BME280;59438;45.014;39.006;2023-04-07T08:42:26;101225.44;;;11.72;74.25
71643;BME280;59438;45.014;39.006;2023-04-07T08:44:55;101221.00;;;11.72;74.03
71643;BME280;59438;45.014;39.006;2023-04-07T08:47:21;101230.41;;;11.79;74.44
71643;BME280;59438;45.014;39.006;2023-04-07T08:49:51;101236.44;;;11.83;74.12
71643;BME280;59438;45.014;39.006;2023-04-07T08:52:21;101226.16;;;11.75;73.57
71643;BME280;59438;45.014;39.006;2023-04-07T08:54:48;101240.84;;;11.82;73.90
71643;BME280;59438;45.014;39.006;2023-04-07T08:57:17;101240.94;;;11.79;73.79
71643;BME280;59438;45.014;39.006;2023-04-07T08:59:43;101234.94;;;11.76;73.84
71643;BME280;59438;45.014;39.006;2023-04-07T09:02:10;101246.19;;;11.79;73.82
71643;BME280;59438;45.014;39.006;2023-04-07T09:04:36;101248.91;;;11.78;74.28
71643;BME280;59438;45.014;39.006;2023-04-07T09:07:03;101236.84;;;11.70;73.84
71643;BME280;59438;45.014;39.006;2023-04-07T09:09:29;101242.16;;;11.69;74.10
71643;BME280;59438;45.014;39.006;2023-04-07T09:11:55;101237.00;;;11.66;74.55
71643;BME280;59438;45.014;39.006;2023-04-07T09:14:23;101242.44;;;11.61;74.21
71643;BME280;59438;45.014;39.006;2023-04-07T09:16:49;101234.78;;;11.54;74.40
71643;BME280;59438;45.014;39.006;2023-04-07T09:19:16;101240.03;;;11.54;74.29
71643;BME280;59438;45.014;39.006;2023-04-07T09:21:49;101237.44;;;11.52;75.28
71643;BME280;59438;45.014;39.006;2023-04-07T09:24:26;101223.44;;;11.52;75.39
71643;BME280;59438;45.014;39.006;2023-04-07T09:27:11;101219.81;;;11.56;75.72
71643;BME280;59438;45.014;39.006;2023-04-07T09:29:40;101222.28;;;11.60;75.05
71643;BME280;59438;45.014;39.006;2023-04-07T09:32:07;101224.75;;;11.65;75.08
71643;BME280;59438;45.014;39.006;2023-04-07T09:34:34;101213.41;;;11.63;75.05
71643;BME280;59438;45.014;39.006;2023-04-07T09:37:02;101223.59;;;11.74;74.57
71643;BME280;59438;45.014;39.006;2023-04-07T09:39:29;101221.81;;;11.74;74.33
71643;BME280;59438;45.014;39.006;2023-04-07T09:41:56;101231.50;;;11.74;74.38
71643;BME280;59438;45.014;39.006;2023-04-07T09:44:23;101228.69;;;11.78;74.51
71643;BME280;59438;45.014;39.006;2023-04-07T09:46:52;101240.78;;;11.84;74.89
71643;BME280;59438;45.014;39.006;2023-04-07T09:49:19;101242.59;;;11.82;74.02
71643;BME280;59438;45.014;39.006;2023-04-07T09:51:56;101243.34;;;11.85;75.03
71643;BME280;59438;45.014;39.006;2023-04-07T09:54:33;101234.47;;;11.89;75.16
71643;BME280;59438;45.014;39.006;2023-04-07T09:57:00;101232.44;;;11.98;74.26
71643;BME280;59438;45.014;39.006;2023-04-07T09:59:27;101234.06;;;12.02;74.65
71643;BME280;59438;45.014;39.006;2023-04-07T10:01:55;101236.47;;;12.08;73.71
71643;BME280;59438;45.014;39.006;2023-04-07T10:04:21;101227.78;;;12.06;74.00
71643;BME280;59438;45.014;39.006;2023-04-07T10:06:49;101227.69;;;12.09;73.81
71643;BME280;59438;45.014;39.006;2023-04-07T10:09:17;101243.16;;;12.18;73.73
71643;BME280;59438;45.014;39.006;2023-04-07T10:11:43;101241.50;;;12.16;74.01
71643;BME280;59438;45.014;39.006;2023-04-07T10:14:10;101252.66;;;12.22;73.63
71643;BME280;59438;45.014;39.006;2023-04-07T10:16:37;101248.16;;;12.26;74.13
71643;BME280;59438;45.014;39.006;2023-04-07T10:19:05;101249.75;;;12.30;74.03
71643;BME280;59438;45.014;39.006;2023-04-07T10:21:34;101237.56;;;12.27;73.78
71643;BME280;59438;45.014;39.006;2023-04-07T10:24:06;101241.69;;;12.35;73.33
71643;BME280;59438;45.014;39.006;2023-04-07T10:26:37;101253.63;;;12.45;73.00
71643;BME280;59438;45.014;39.006;2023-04-07T10:29:09;101247.44;;;12.46;73.18
71643;BME280;59438;45.014;39.006;2023-04-07T10:31:37;101238.75;;;12.44;72.77
71643;BME280;59438;45.014;39.006;2023-04-07T10:34:05;101246.66;;;12.44;72.99
71643;BME280;59438;45.014;39.006;2023-04-07T10:36:31;101240.50;;;12.43;72.97
71643;BME280;59438;45.014;39.006;2023-04-07T10:39:20;101240.41;;;12.46;72.95
71643;BME280;59438;45.014;39.006;2023-04-07T10:41:47;101242.19;;;12.46;73.34
71643;BME280;59438;45.014;39.006;2023-04-07T10:47:20;101245.72;;;12.45;72.88
71643;BME280;59438;45.014;39.006;2023-04-07T10:50:16;101235.16;;;12.45;72.96
71643;BME280;59438;45.014;39.006;2023-04-07T10:52:43;101240.50;;;12.43;73.08
71643;BME280;59438;45.014;39.006;2023-04-07T10:55:30;101239.69;;;12.41;72.94
71643;BME280;59438;45.014;39.006;2023-04-07T10:58:16;101240.63;;;12.40;72.52
71643;BME280;59438;45.014;39.006;2023-04-07T11:01:16;101235.44;;;12.37;72.55
71643;BME280;59438;45.014;39.006;2023-04-07T11:03:58;101237.22;;;12.37;73.33
71643;BME280;59438;45.014;39.006;2023-04-07T11:06:26;101228.56;;;12.33;72.60
71643;BME280;59438;45.014;39.006;2023-04-07T11:08:52;101232.88;;;12.36;73.05
71643;BME280;59438;45.014;39.006;2023-04-07T11:11:34;101234.41;;;12.41;73.00
71643;BME280;59438;45.014;39.006;2023-04-07T11:14:01;101232.75;;;12.39;72.70
71643;BME280;59438;45.014;39.006;2023-04-07T11:16:35;101233.56;;;12.41;73.28
71643;BME280;59438;45.014;39.006;2023-04-07T11:19:02;101230.84;;;12.44;72.94
71643;BME280;59438;45.014;39.006;2023-04-07T11:21:30;101230.88;;;12.42;72.91
71643;BME280;59438;45.014;39.006;2023-04-07T11:23:56;101235.31;;;12.42;73.06
71643;BME280;59438;45.014;39.006;2023-04-07T11:26:23;101232.75;;;12.39;72.98
71643;BME280;59438;45.014;39.006;2023-04-07T11:28:50;101231.88;;;12.40;73.08
71643;BME280;59438;45.014;39.006;2023-04-07T11:31:20;101230.97;;;12.39;73.44
71643;BME280;59438;45.014;39.006;2023-04-07T11:33:51;101224.84;;;12.39;73.61
71643;BME280;59438;45.014;39.006;2023-04-07T11:36:25;101191.22;;;12.22;73.37
71643;BME280;59438;45.014;39.006;2023-04-07T11:38:53;101216.88;;;12.42;73.35
71643;BME280;59438;45.014;39.006;2023-04-07T11:41:20;101215.84;;;12.46;73.41
71643;BME280;59438;45.014;39.006;2023-04-07T11:43:46;101205.97;;;12.51;73.42
71643;BME280;59438;45.014;39.006;2023-04-07T11:46:14;101197.78;;;12.59;73.62
71643;BME280;59438;45.014;39.006;2023-04-07T11:48:41;101183.53;;;12.64;72.83
71643;BME280;59438;45.014;39.006;2023-04-07T11:51:15;101186.59;;;12.76;73.27
71643;BME280;59438;45.014;39.006;2023-04-07T11:53:42;101187.16;;;12.84;72.81
71643;BME280;59438;45.014;39.006;2023-04-07T11:56:12;101187.06;;;12.87;72.41
71643;BME280;59438;45.014;39.006;2023-04-07T11:58:46;101192.09;;;12.93;72.26
71643;BME280;59438;45.014;39.006;2023-04-07T12:01:12;101191.19;;;12.93;72.06
71643;BME280;59438;45.014;39.006;2023-04-07T12:03:54;101183.44;;;12.89;71.78
71643;BME280;59438;45.014;39.006;2023-04-07T12:06:26;101185.59;;;13.02;71.95
71643;BME280;59438;45.014;39.006;2023-04-07T12:08:53;101187.19;;;13.06;72.10
71643;BME280;59438;45.014;39.006;2023-04-07T12:11:21;101198.41;;;13.11;71.45
71643;BME280;59438;45.014;39.006;2023-04-07T12:13:47;101195.47;;;13.19;71.50
71643;BME280;59438;45.014;39.006;2023-04-07T12:16:14;101203.97;;;13.25;71.39
71643;BME280;59438;45.014;39.006;2023-04-07T12:18:41;101201.28;;;13.27;71.36
71643;BME280;59438;45.014;39.006;2023-04-07T12:21:07;101198.53;;;13.30;71.18
71643;BME280;59438;45.014;39.006;2023-04-07T12:23:34;101194.16;;;13.30;71.11
71643;BME280;59438;45.014;39.006;2023-04-07T12:26:00;101198.38;;;13.35;70.86
71643;BME280;59438;45.014;39.006;2023-04-07T12:28:28;101186.78;;;13.39;70.88
71643;BME280;59438;45.014;39.006;2023-04-07T12:30:54;101191.00;;;13.43;70.86
71643;BME280;59438;45.014;39.006;2023-04-07T12:33:20;101192.41;;;13.52;70.88
71643;BME280;59438;45.014;39.006;2023-04-07T12:35:47;101186.97;;;13.55;70.27
71643;BME280;59438;45.014;39.006;2023-04-07T12:38:13;101192.16;;;13.58;70.56
71643;BME280;59438;45.014;39.006;2023-04-07T12:40:40;101189.50;;;13.58;70.09
71643;BME280;59438;45.014;39.006;2023-04-07T12:43:07;101181.91;;;13.50;70.25
71643;BME280;59438;45.014;39.006;2023-04-07T12:45:35;101183.50;;;13.54;69.80
71643;BME280;59438;45.014;39.006;2023-04-07T12:48:01;101184.09;;;13.61;70.23
71643;BME280;59438;45.014;39.006;2023-04-07T12:50:28;101189.00;;;13.70;69.95
71643;BME280;59438;45.014;39.006;2023-04-07T12:52:55;101166.94;;;13.71;69.95